Time;durP1;ratioP1;P1;durP2;ratioP2;P2;SDS_P1;SDS_P2;PMS_P1;PMS_P2;Temp;Humidity;BMP_temperature;BMP_pressure;BME280_temperature;BME280_humidity;BME280_pressure;Samples;Min_cycle;Max_cycle;Signal;HPM_P1;HPM_P2
2023/03/15 00:01:56;;;;;;;;;8.00;6.00;;;;;8.77;100.00;99254.16;5096718;27;45443;-79
2023/03/15 00:04:23;;;;;;;;;10.00;9.00;;;;;8.74;100.00;99258.59;5096124;27;45419;-80
2023/03/15 00:06:49;;;;;;;;;7.25;7.25;;;;;8.72;100.00;99263.03;5097202;27;45420;-79
2023/03/15 00:09:14;;;;;;;;;8.00;6.00;;;;;8.70;100.00;99259.63;5096078;27;45405;-79
2023/03/15 00:11:40;;;;;;;;;7.25;7.25;;;;;8.69;100.00;99257.91;5077802;27;46963;-79
2023/03/15 00:14:05;;;;;;;;;4.00;3.25;;;;;8.66;100.00;99260.63;5096011;27;45575;-79
2023/03/15 00:16:31;;;;;;;;;11.33;10.67;;;;;8.66;100.00;99265.00;5069850;27;45456;-79
2023/03/15 00:18:57;;;;;;;;;12.50;10.75;;;;;8.64;100.00;99279.97;5096419;27;45313;-79
2023/03/15 00:21:23;;;;;;;;;8.33;8.33;;;;;8.54;100.00;99284.66;5096406;27;45462;-80
2023/03/15 00:23:48;;;;;;;;;10.33;8.00;;;;;8.46;100.00;99291.88;5097115;27;45398;-79
2023/03/15 00:26:13;;;;;;;;;12.00;11.33;;;;;8.39;100.00;99285.91;5096624;27;45942;-79
2023/03/15 00:28:39;;;;;;;;;11.00;10.00;;;;;8.40;100.00;99289.41;5096820;27;45500;-79
2023/03/15 00:31:06;;;;;;;;;13.00;8.00;;;;;8.43;100.00;99297.22;5093230;27;46337;-79
2023/03/15 00:33:33;;;;;;;;;14.33;10.00;;;;;8.48;100.00;99302.34;5077418;27;45391;-79
2023/03/15 00:36:02;;;;;;;;;10.00;9.75;;;;;8.52;100.00;99296.97;5092118;27;45381;-80
2023/03/15 00:38:28;;;;;;;;;9.67;9.00;;;;;8.55;100.00;99286.34;5071150;27;45508;-79
2023/03/15 00:40:53;;;;;;;;;9.33;9.33;;;;;8.58;100.00;99288.00;5091476;27;46053;-80
2023/03/15 00:43:18;;;;;;;;;12.00;9.25;;;;;8.62;100.00;99289.66;5096316;27;45362;-77
2023/03/15 00:45:44;;;;;;;;;10.33;9.33;;;;;8.65;100.00;99300.09;5091753;27;45508;-79
2023/03/15 00:48:09;;;;;;;;;9.00;8.00;;;;;8.67;100.00;99295.66;5095064;27;45427;-78
2023/03/15 00:50:35;;;;;;;;;11.50;8.00;;;;;8.69;100.00;99294.69;5091556;27;45534;-79
2023/03/15 00:53:00;;;;;;;;;7.00;7.00;;;;;8.64;100.00;99298.38;5086182;27;45432;-79
2023/03/15 00:55:26;;;;;;;;;10.50;10.00;;;;;8.56;100.00;99300.34;5094489;27;45465;-79
2023/03/15 00:57:51;;;;;;;;;7.50;7.25;;;;;8.49;100.00;99306.69;5095719;27;45582;-79
2023/03/15 01:00:22;;;;;;;;;15.67;11.00;;;;;8.44;100.00;99306.81;5096375;27;46252;-79
2023/03/15 01:02:48;;;;;;;;;11.00;10.00;;;;;8.39;100.00;99314.81;5095828;27;45380;-79
2023/03/15 01:05:14;;;;;;;;;11.67;10.00;;;;;8.37;100.00;99313.16;5078075;27;45363;-79
2023/03/15 01:07:39;;;;;;;;;11.00;10.67;;;;;8.34;100.00;99305.38;5095934;27;45596;-79
2023/03/15 01:10:06;;;;;;;;;10.67;9.00;;;;;8.31;100.00;99306.28;5095291;27;45498;-79
2023/03/15 01:12:32;;;;;;;;;12.33;9.67;;;;;8.34;100.00;99303.59;5095562;27;45462;-79
2023/03/15 01:14:59;;;;;;;;;9.67;9.33;;;;;8.38;100.00;99302.59;5095237;27;45451;-79
2023/03/15 01:17:25;;;;;;;;;11.25;9.00;;;;;8.43;100.00;99297.22;5088546;27;45590;-79
2023/03/15 01:19:50;;;;;;;;;11.00;10.00;;;;;8.45;100.00;99291.91;5096191;27;45392;-79
2023/03/15 01:22:16;;;;;;;;;11.00;11.00;;;;;8.45;100.00;99295.41;5066732;27;45520;-79
2023/03/15 01:24:42;;;;;;;;;8.67;7.33;;;;;8.43;100.00;99291.09;5092352;27;45586;-79
2023/03/15 01:27:08;;;;;;;;;10.25;9.25;;;;;8.43;100.00;99288.47;5092393;27;45459;-78
2023/03/15 01:29:33;;;;;;;;;8.00;8.00;;;;;8.43;100.00;99291.09;5096133;27;46532;-79
2023/03/15 01:31:58;;;;;;;;;6.00;6.00;;;;;8.42;100.00;99295.47;5095884;27;45497;-79
2023/03/15 01:34:24;;;;;;;;;9.00;8.75;;;;;8.43;100.00;99288.47;5096272;27;45266;-79
2023/03/15 01:36:53;;;;;;;;;9.00;8.75;;;;;8.44;100.00;99283.16;5095790;27;45361;-79
2023/03/15 01:39:19;;;;;;;;;9.00;8.25;;;;;8.47;100.00;99288.34;5067431;27;47166;-79
2023/03/15 01:41:45;;;;;;;;;8.00;8.00;;;;;8.50;100.00;99285.63;5091662;27;45505;-79
2023/03/15 01:44:15;;;;;;;;;10.75;8.75;;;;;8.46;100.00;99281.38;5077005;27;45476;-78
2023/03/15 01:46:40;;;;;;;;;9.00;7.75;;;;;8.42;100.00;99284.97;5089814;27;45495;-79
2023/03/15 01:49:15;;;;;;;;;4.75;4.75;;;;;8.42;100.00;99286.75;5070841;27;46690;-79
2023/03/15 01:51:57;;;;;;;;;5.00;4.75;;;;;8.40;100.00;99281.53;5090702;27;45408;-79
2023/03/15 01:54:30;;;;;;;;;9.00;6.25;;;;;8.39;98.01;99285.06;5087898;27;45362;-79
2023/03/15 01:57:01;;;;;;;;;1.75;1.00;;;;;8.41;100.00;99280.63;5090413;27;45581;-79
2023/03/15 01:59:32;;;;;;;;;5.00;5.00;;;;;8.40;93.83;99277.13;5095649;27;45528;-78
2023/03/15 02:01:59;;;;;;;;;4.00;2.00;;;;;8.48;100.00;99270.81;5067574;27;45463;-78
2023/03/15 02:04:37;;;;;;;;;4.00;2.25;;;;;8.54;100.00;99268.88;5095749;27;45443;-79
2023/03/15 02:07:04;;;;;;;;;4.00;3.50;;;;;8.56;98.37;99274.91;5094971;27;45641;-79
2023/03/15 02:09:59;;;;;;;;;3.25;0.75;;;;;8.61;85.77;99283.53;5094983;27;45543;-79
2023/03/15 02:12:26;;;;;;;;;3.25;3.25;;;;;8.69;100.00;99301.72;5079669;27;45450;-79
2023/03/15 02:14:52;;;;;;;;;10.25;9.00;;;;;8.67;100.00;99325.41;5094806;27;45495;-79
2023/03/15 02:17:22;;;;;;;;;4.25;4.00;;;;;8.54;100.00;99313.56;5095544;27;45415;-79
2023/03/15 02:20:06;;;;;;;;;3.00;3.00;;;;;8.47;100.00;99312.00;5077141;27;47103;-78
2023/03/15 02:22:54;;;;;;;;;2.00;2.00;;;;;8.46;100.00;99304.16;5084137;27;45452;-78
2023/03/15 02:25:29;;;;;;;;;4.50;4.50;;;;;8.50;100.00;99313.66;5077203;27;45327;-79
2023/03/15 02:27:56;;;;;;;;;6.75;3.00;;;;;8.55;100.00;99324.88;5075356;27;45555;-78
2023/03/15 02:30:21;;;;;;;;;8.00;4.50;;;;;8.55;100.00;99332.78;5073015;27;47864;-79
2023/03/15 02:32:47;;;;;;;;;5.00;4.25;;;;;8.55;100.00;99335.41;5095086;27;45432;-78
2023/03/15 02:35:24;;;;;;;;;9.00;3.00;;;;;8.54;100.00;99333.72;5079923;27;45296;-79
2023/03/15 02:37:50;;;;;;;;;6.00;5.00;;;;;8.52;100.00;99331.13;5079431;27;45639;-78
2023/03/15 02:40:19;;;;;;;;;7.75;5.25;;;;;8.48;100.00;99328.63;5097746;27;46523;-78
2023/03/15 02:42:46;;;;;;;;;6.50;5.00;;;;;8.42;100.00;99336.66;5075067;27;45453;-79
2023/03/15 02:45:12;;;;;;;;;4.25;4.00;;;;;8.39;100.00;99332.34;5078834;27;45439;-79
2023/03/15 02:47:38;;;;;;;;;7.67;5.67;;;;;8.40;100.00;99334.06;5097903;27;45334;-79
2023/03/15 02:50:04;;;;;;;;;8.75;5.25;;;;;8.36;100.00;99335.94;5098532;27;45357;-79
2023/03/15 02:52:29;;;;;;;;;2.50;2.50;;;;;8.34;100.00;99335.13;5098520;27;45316;-79
2023/03/15 02:54:54;;;;;;;;;2.50;1.00;;;;;8.32;100.00;99331.66;5098207;27;45649;-79
2023/03/15 02:57:20;;;;;;;;;3.50;3.00;;;;;8.31;100.00;99331.69;5095866;27;45490;-78
2023/03/15 02:59:46;;;;;;;;;3.25;3.00;;;;;8.33;100.00;99328.16;5096945;27;45428;-79
2023/03/15 03:02:12;;;;;;;;;2.25;2.00;;;;;8.33;100.00;99328.16;5096562;27;45495;-79
2023/03/15 03:04:38;;;;;;;;;3.00;3.00;;;;;8.33;100.00;99332.53;5096885;27;45431;-79
2023/03/15 03:07:03;;;;;;;;;2.75;2.00;;;;;8.32;100.00;99331.66;5093267;27;45585;-79
2023/03/15 03:09:29;;;;;;;;;3.00;2.25;;;;;8.31;100.00;99329.06;5075744;27;48232;-79
2023/03/15 03:11:55;;;;;;;;;2.75;2.75;;;;;8.32;100.00;99336.06;5075835;27;45736;-79
2023/03/15 03:14:22;;;;;;;;;5.00;3.25;;;;;8.35;100.00;99338.63;5093591;27;45386;-79
2023/03/15 03:16:48;;;;;;;;;4.25;1.75;;;;;8.36;100.00;99332.47;5085290;27;45629;-79
2023/03/15 03:19:14;;;;;;;;;2.75;2.00;;;;;8.38;100.00;99333.25;5086242;27;46724;-78
2023/03/15 03:21:42;;;;;;;;;2.00;2.00;;;;;8.39;100.00;99332.34;5098561;27;45394;-79
2023/03/15 03:24:07;;;;;;;;;2.00;2.00;;;;;8.40;100.00;99326.19;5098437;27;45452;-79
2023/03/15 03:26:33;;;;;;;;;2.50;2.00;;;;;8.39;100.00;99330.56;5079281;27;45558;-79
2023/03/15 03:28:58;;;;;;;;;2.00;2.00;;;;;8.44;100.00;99334.84;5097838;27;45578;-79
2023/03/15 03:31:26;;;;;;;;;1.50;1.00;;;;;8.46;100.00;99341.78;5087629;27;45431;-78
2023/03/15 03:33:52;;;;;;;;;3.00;1.00;;;;;8.47;100.00;99343.50;5093269;27;45499;-78
2023/03/15 03:36:18;;;;;;;;;2.50;0.00;;;;;8.50;100.00;99338.19;5097689;27;45439;-79
2023/03/15 03:38:45;;;;;;;;;4.00;2.00;;;;;8.53;100.00;99340.72;5095029;27;45428;-78
2023/03/15 03:41:12;;;;;;;;;1.00;1.00;;;;;8.54;100.00;99345.06;5087345;27;45466;-78
2023/03/15 03:43:38;;;;;;;;;2.50;2.25;;;;;8.56;100.00;99347.63;5095637;27;45428;-78
2023/03/15 03:46:04;;;;;;;;;1.25;1.00;;;;;8.54;100.00;99352.09;5077578;27;45566;-79
2023/03/15 03:48:30;;;;;;;;;2.00;2.00;;;;;8.53;100.00;99347.75;5097230;27;46330;-78
2023/03/15 03:50:55;;;;;;;;;2.00;2.00;;;;;8.52;100.00;99349.50;5097662;27;45297;-78
2023/03/15 03:53:21;;;;;;;;;1.00;1.00;;;;;8.52;100.00;99351.28;5097476;27;45526;-78
2023/03/15 03:55:47;;;;;;;;;1.00;1.00;;;;;8.49;100.00;99354.84;5096630;27;45287;-78
2023/03/15 03:58:12;;;;;;;;;1.00;1.00;;;;;8.46;100.00;99349.66;5097144;27;46597;-78
2023/03/15 04:00:38;;;;;;;;;3.00;0.50;;;;;8.46;100.00;99351.44;5079089;27;45382;-78
2023/03/15 04:03:04;;;;;;;;;1.00;1.00;;;;;8.44;100.00;99350.63;5094657;27;45408;-78
2023/03/15 04:05:30;;;;;;;;;3.25;2.25;;;;;8.42;100.00;99349.78;5097628;27;45298;-78
2023/03/15 04:07:55;;;;;;;;;1.25;1.25;;;;;8.37;100.00;99350.81;5093237;27;45447;-78
2023/03/15 04:10:25;;;;;;;;;2.50;2.50;;;;;8.35;100.00;99352.59;5079161;27;45495;-78
2023/03/15 04:12:53;;;;;;;;;2.00;2.00;;;;;8.31;100.00;99350.06;5093512;27;45476;-78
2023/03/15 04:15:18;;;;;;;;;3.50;3.50;;;;;8.26;100.00;99349.31;5096689;27;45452;-78
2023/03/15 04:17:44;;;;;;;;;3.50;3.00;;;;;8.22;100.00;99345.91;5069197;27;47097;-78
2023/03/15 04:20:11;;;;;;;;;5.00;3.75;;;;;8.18;100.00;99340.81;5078787;27;45367;-78
2023/03/15 04:22:37;;;;;;;;;4.75;3.00;;;;;8.13;100.00;99334.81;5097192;27;45402;-79
2023/03/15 04:25:03;;;;;;;;;4.00;4.00;;;;;8.08;100.00;99329.66;5095998;27;45442;-78
2023/03/15 04:27:29;;;;;;;;;1.75;1.75;;;;;8.03;100.00;99335.06;5068612;27;47995;-78
2023/03/15 04:29:54;;;;;;;;;3.00;3.00;;;;;7.92;100.00;99326.59;5078738;27;45385;-79
2023/03/15 04:32:19;;;;;;;;;2.50;1.25;;;;;7.83;100.00;99324.22;5069569;27;45389;-78
2023/03/15 04:34:50;;;;;;;;;1.25;1.25;;;;;7.74;100.00;99320.94;5096570;27;45511;-78
2023/03/15 04:37:16;;;;;;;;;1.75;1.00;;;;;7.65;100.00;99314.19;5096176;27;45597;-78
2023/03/15 04:39:41;;;;;;;;;2.75;1.25;;;;;7.55;100.00;99308.28;5095778;27;45459;-79
2023/03/15 04:42:07;;;;;;;;;1.00;1.00;;;;;7.47;100.00;99312.88;5096240;27;45409;-78
2023/03/15 04:44:32;;;;;;;;;2.00;2.00;;;;;7.42;100.00;99314.75;5097102;27;45427;-78
2023/03/15 04:46:58;;;;;;;;;2.50;2.50;;;;;7.40;100.00;99316.53;5095994;27;45376;-78
2023/03/15 04:49:23;;;;;;;;;3.00;2.00;;;;;7.38;100.00;99314.84;5078381;27;46156;-78
2023/03/15 04:51:48;;;;;;;;;5.67;4.00;;;;;7.33;100.00;99313.22;5095902;27;45474;-79
2023/03/15 04:54:14;;;;;;;;;4.00;4.00;;;;;7.28;100.00;99307.22;5096076;27;45596;-78
2023/03/15 04:56:40;;;;;;;;;4.67;4.00;;;;;7.31;100.00;99306.28;5095729;27;45412;-78
2023/03/15 04:59:06;;;;;;;;;4.33;3.00;;;;;7.30;100.00;99310.66;5096544;27;45413;-78
2023/03/15 05:01:32;;;;;;;;;3.67;3.67;;;;;7.28;100.00;99309.84;5096319;27;45415;-78
2023/03/15 05:03:57;;;;;;;;;5.00;3.00;;;;;7.25;100.00;99311.66;5096653;27;45287;-78
2023/03/15 05:06:23;;;;;;;;;3.50;3.00;;;;;7.17;100.00;99313.63;5096341;27;45403;-79
2023/03/15 05:08:48;;;;;;;;;3.00;3.00;;;;;7.11;100.00;99321.59;5096711;27;45477;-78
2023/03/15 05:11:14;;;;;;;;;8.33;2.33;;;;;7.07;100.00;99318.19;5095864;27;45349;-78
2023/03/15 05:13:39;;;;;;;;;3.33;3.00;;;;;7.07;100.00;99314.69;5096477;27;45353;-78
2023/03/15 05:16:05;;;;;;;;;4.00;4.00;;;;;7.05;100.00;99313.88;5075478;27;47348;-78
2023/03/15 05:18:30;;;;;;;;;4.00;3.00;;;;;7.01;100.00;99313.09;5096168;27;45436;-78
2023/03/15 05:20:56;;;;;;;;;1.25;1.25;;;;;6.97;100.00;99325.41;5094465;27;45402;-78
2023/03/15 05:23:22;;;;;;;;;0.75;0.75;;;;;6.90;100.00;99336.03;5094907;27;45511;-78
2023/03/15 05:25:52;;;;;;;;;0.75;0.75;;;;;6.79;100.00;99325.81;5095935;27;46081;-78
2023/03/15 05:28:20;;;;;;;;;1.00;1.00;;;;;6.72;100.00;99333.81;5096182;27;45246;-78
2023/03/15 05:30:45;;;;;;;;;1.00;1.00;;;;;6.62;100.00;99339.25;5096109;27;45674;-79
2023/03/15 05:33:10;;;;;;;;;0.25;0.00;;;;;6.57;100.00;99342.88;5095846;27;45490;-78
2023/03/15 05:35:36;;;;;;;;;1.00;1.00;;;;;6.50;100.00;99331.66;5092918;27;45432;-79
2023/03/15 05:38:02;;;;;;;;;0.50;0.50;;;;;6.49;100.00;99340.41;5094530;27;45369;-78
2023/03/15 05:40:29;;;;;;;;;1.00;1.00;;;;;6.47;100.00;99338.72;5077543;27;45408;-79
2023/03/15 05:42:55;;;;;;;;;1.00;0.00;;;;;6.43;100.00;99335.28;5090955;27;45514;-78
2023/03/15 05:45:20;;;;;;;;;1.75;0.75;;;;;6.40;100.00;99339.72;5094089;27;45486;-78
2023/03/15 05:47:46;;;;;;;;;0.00;0.00;;;;;6.35;100.00;99336.34;5077347;27;45848;-78
2023/03/15 05:50:11;;;;;;;;;1.00;1.00;;;;;6.35;100.00;99341.59;5095618;27;45363;-78
2023/03/15 05:52:37;;;;;;;;;1.00;1.00;;;;;6.36;100.00;99343.31;5095315;27;45451;-78
2023/03/15 05:55:02;;;;;;;;;0.50;0.50;;;;;6.36;100.00;99340.69;5094350;27;45532;-78
2023/03/15 05:57:28;;;;;;;;;1.00;1.00;;;;;6.38;100.00;99351.97;5075233;27;45468;-78
2023/03/15 05:59:53;;;;;;;;;3.00;3.00;;;;;6.38;100.00;99352.84;5074919;27;45409;-78
2023/03/15 06:02:18;;;;;;;;;7.00;4.00;;;;;6.44;100.00;99346.63;5094634;27;45547;-78
2023/03/15 06:04:44;;;;;;;;;2.00;2.00;;;;;6.49;100.00;99345.66;5093161;27;46561;-78
2023/03/15 06:07:09;;;;;;;;;7.00;3.67;;;;;6.53;100.00;99351.69;5083063;27;45352;-79
2023/03/15 06:09:35;;;;;;;;;2.00;2.00;;;;;6.56;100.00;99354.22;5095772;27;45239;-79
2023/03/15 06:12:00;;;;;;;;;4.00;4.00;;;;;6.56;100.00;99352.47;5095049;27;45694;-79
2023/03/15 06:14:26;;;;;;;;;1.50;1.00;;;;;6.54;100.00;99353.41;5075342;27;45700;-78
2023/03/15 06:16:52;;;;;;;;;2.00;2.00;;;;;6.50;100.00;99347.38;5075306;27;45536;-80
2023/03/15 06:19:18;;;;;;;;;3.00;2.00;;;;;6.47;100.00;99343.97;5094814;27;45360;-79
2023/03/15 06:21:44;;;;;;;;;3.25;1.50;;;;;6.42;100.00;99348.41;5094389;27;45381;-80
2023/03/15 06:24:09;;;;;;;;;2.00;2.00;;;;;6.39;100.00;99345.84;5076110;27;46908;-79
2023/03/15 06:26:35;;;;;;;;;1.25;1.25;;;;;6.35;100.00;99344.22;5072449;27;45425;-79
2023/03/15 06:29:00;;;;;;;;;2.50;2.50;;;;;6.31;100.00;99348.63;5093269;27;45432;-80
2023/03/15 06:31:26;;;;;;;;;7.00;3.00;;;;;6.31;100.00;99351.25;5070946;27;45391;-78
2023/03/15 06:33:51;;;;;;;;;1.25;1.25;;;;;6.36;100.00;99351.16;5090052;27;45527;-79
2023/03/15 06:36:16;;;;;;;;;1.00;1.00;;;;;6.35;100.00;99358.16;5091591;27;45391;-78
2023/03/15 06:38:42;;;;;;;;;3.00;3.00;;;;;6.38;100.00;99349.34;5092202;27;45394;-78
2023/03/15 06:41:07;;;;;;;;;3.00;1.00;;;;;6.43;100.00;99355.38;5092766;27;45463;-79
2023/03/15 06:43:33;;;;;;;;;2.00;2.00;;;;;6.46;100.00;99357.94;5093889;27;46048;-78
2023/03/15 06:45:59;;;;;;;;;2.33;2.33;;;;;6.50;100.00;99368.34;5093103;27;45354;-78
2023/03/15 06:48:28;;;;;;;;;3.67;3.00;;;;;6.56;100.00;99372.56;5085221;27;45520;-78
2023/03/15 06:50:53;;;;;;;;;5.67;3.33;;;;;6.64;100.00;99379.41;5083402;27;45701;-79
2023/03/15 06:53:19;;;;;;;;;4.00;3.00;;;;;6.73;100.00;99383.56;5090359;27;45504;-69
2023/03/15 06:55:46;;;;;;;;;6.00;4.00;;;;;6.86;100.00;99379.81;5092286;27;45525;-69
2023/03/15 06:58:12;;;;;;;;;8.00;7.33;;;;;6.98;100.00;99383.94;5091966;27;45554;-70
2023/03/15 07:00:37;;;;;;;;;8.67;7.67;;;;;7.06;100.00;99382.00;5092953;27;45382;-70
2023/03/15 07:03:03;;;;;;;;;10.67;5.67;;;;;7.12;100.00;99387.13;5092375;27;46568;-70
2023/03/15 07:05:30;;;;;;;;;6.33;5.33;;;;;7.17;100.00;99387.03;5093238;27;45360;-70
2023/03/15 07:07:56;;;;;;;;;7.00;7.00;;;;;7.21;100.00;99393.91;5086278;27;45532;-70
2023/03/15 07:10:21;;;;;;;;;4.00;4.00;;;;;7.24;100.00;99396.47;5091678;27;45438;-70
2023/03/15 07:12:46;;;;;;;;;4.33;4.33;;;;;7.24;100.00;99393.84;5086773;27;46116;-70
2023/03/15 07:15:12;;;;;;;;;7.67;7.67;;;;;7.25;100.00;99400.81;5092096;27;45366;-70
2023/03/15 07:17:38;;;;;;;;;11.67;9.00;;;;;7.26;100.00;99400.78;5089965;27;45353;-69
2023/03/15 07:20:04;;;;;;;;;8.33;6.67;;;;;7.28;100.00;99400.75;5095139;27;45510;-70
2023/03/15 07:22:33;;;;;;;;;9.00;7.33;;;;;7.29;100.00;99403.34;5095577;27;46161;-70
2023/03/15 07:24:58;;;;;;;;;7.00;7.00;;;;;7.33;100.00;99406.75;5077421;27;45897;-69
2023/03/15 07:27:24;;;;;;;;;7.33;7.33;;;;;7.38;100.00;99404.88;5088615;27;45625;-69
2023/03/15 07:29:49;;;;;;;;;9.33;7.33;;;;;7.43;100.00;99412.66;5077641;27;45377;-69
2023/03/15 07:32:15;;;;;;;;;10.33;8.67;;;;;7.45;100.00;99413.47;5091403;27;46433;-69
2023/03/15 07:34:40;;;;;;;;;10.67;10.00;;;;;7.46;100.00;99412.59;5095456;27;45464;-69
2023/03/15 07:37:06;;;;;;;;;12.00;9.33;;;;;7.49;100.00;99421.25;5096001;27;45689;-69
2023/03/15 07:39:31;;;;;;;;;10.00;10.00;;;;;7.53;100.00;99419.44;5094715;27;45590;-67
2023/03/15 07:41:58;;;;;;;;;14.00;9.33;;;;;7.57;100.00;99419.28;5088322;27;45485;-69
2023/03/15 07:44:24;;;;;;;;;12.67;9.00;;;;;7.62;100.00;99414.81;5095533;27;45541;-69
2023/03/15 07:46:49;;;;;;;;;11.33;10.00;;;;;7.70;100.00;99417.28;5090266;27;45483;-69
2023/03/15 07:49:15;;;;;;;;;10.67;8.00;;;;;7.76;100.00;99413.63;5095773;27;45499;-69
2023/03/15 07:51:41;;;;;;;;;14.33;10.00;;;;;7.78;100.00;99412.69;5092728;27;46704;-67
2023/03/15 07:54:07;;;;;;;;;10.67;8.67;;;;;7.83;100.00;99410.81;5094887;27;45413;-67
2023/03/15 07:56:32;;;;;;;;;12.33;9.00;;;;;7.90;100.00;99414.13;5095383;27;45469;-67
2023/03/15 07:58:57;;;;;;;;;11.00;9.00;;;;;7.97;100.00;99423.59;5092049;27;45440;-68
2023/03/15 08:01:23;;;;;;;;;2.00;2.00;;;;;8.03;100.00;99421.69;5090283;27;46356;-67
2023/03/15 08:03:48;;;;;;;;;2.00;2.00;;;;;8.03;100.00;99418.22;5095599;27;45567;-67
2023/03/15 08:06:14;;;;;;;;;5.25;4.00;;;;;8.08;100.00;99424.19;5094444;27;45315;-68
2023/03/15 08:08:39;;;;;;;;;5.00;5.00;;;;;8.12;100.00;99425.84;5090885;27;45387;-69
2023/03/15 08:11:05;;;;;;;;;4.50;4.50;;;;;8.18;100.00;99427.47;5075820;27;47038;-69
2023/03/15 08:13:30;;;;;;;;;2.00;2.00;;;;;8.19;100.00;99437.94;5090131;27;45371;-69
2023/03/15 08:15:55;;;;;;;;;5.00;3.00;;;;;8.21;100.00;99427.38;5094835;27;45441;-69
2023/03/15 08:18:21;;;;;;;;;2.25;1.00;;;;;8.27;100.00;99428.06;5094694;27;45612;-69
2023/03/15 08:20:46;;;;;;;;;4.75;2.50;;;;;8.34;100.00;99432.31;5090016;27;45601;-68
2023/03/15 08:23:15;;;;;;;;;3.75;2.00;;;;;8.40;100.00;99426.88;5086390;27;46318;-69
2023/03/15 08:25:41;;;;;;;;;2.00;2.00;;;;;8.46;100.00;99431.13;5093664;27;45428;-68
2023/03/15 08:28:07;;;;;;;;;2.50;1.00;;;;;8.53;100.00;99429.19;5095144;27;45423;-66
2023/03/15 08:30:32;;;;;;;;;1.50;1.50;;;;;8.53;100.00;99437.94;5093781;27;45381;-69
2023/03/15 08:32:58;;;;;;;;;1.25;1.25;;;;;8.54;100.00;99423.91;5089767;27;45387;-69
2023/03/15 08:35:23;;;;;;;;;4.25;3.50;;;;;8.60;100.00;99422.84;5095099;27;45374;-68
2023/03/15 08:37:51;;;;;;;;;2.00;1.75;;;;;8.58;97.91;99414.16;5073953;27;45350;-68
2023/03/15 08:40:24;;;;;;;;;2.50;1.25;;;;;8.51;100.00;99418.72;5083006;27;46456;-68
2023/03/15 08:42:50;;;;;;;;;6.00;3.75;;;;;8.53;100.00;99418.69;5091088;27;45503;-68
2023/03/15 08:45:16;;;;;;;;;4.50;2.50;;;;;8.56;100.00;99415.97;5092642;27;45357;-68
2023/03/15 08:47:42;;;;;;;;;4.75;2.50;;;;;8.61;100.00;99414.94;5094042;27;45480;-68
2023/03/15 08:50:13;;;;;;;;;3.50;1.75;;;;;8.69;100.00;99420.00;5094280;27;45476;-68
2023/03/15 08:52:39;;;;;;;;;3.75;3.75;;;;;8.75;100.00;99423.28;5091941;27;45431;-68
2023/03/15 08:55:05;;;;;;;;;3.00;2.25;;;;;8.80;100.00;99424.94;5093939;27;45477;-68
2023/03/15 08:57:34;;;;;;;;;2.00;2.00;;;;;8.84;100.00;99430.09;5092676;27;45703;-68
2023/03/15 09:00:00;;;;;;;;;3.75;3.75;;;;;8.88;100.00;99421.19;5092705;27;46680;-68
2023/03/15 09:02:29;;;;;;;;;3.00;3.00;;;;;8.94;100.00;99421.00;5091336;27;45519;-68
2023/03/15 09:04:54;;;;;;;;;3.00;3.00;;;;;8.97;100.00;99426.19;5093722;27;45440;-68
2023/03/15 09:07:20;;;;;;;;;3.75;3.75;;;;;9.01;100.00;99427.84;5085354;27;45574;-68
2023/03/15 09:09:47;;;;;;;;;4.75;3.00;;;;;9.05;100.00;99431.22;5092077;27;47252;-68
2023/03/15 09:12:16;;;;;;;;;1.00;0.25;;;;;9.05;100.00;99426.81;5089645;27;45440;-68
2023/03/15 09:14:42;;;;;;;;;1.00;0.25;;;;;9.06;100.00;99425.03;5073260;27;45812;-69
2023/03/15 09:17:08;;;;;;;;;3.25;0.00;;;;;9.10;100.00;99422.28;5090532;27;45505;-69
2023/03/15 09:19:34;;;;;;;;;3.50;0.75;;;;;9.11;100.00;99425.78;5094012;27;45519;-68
2023/03/15 09:21:59;;;;;;;;;1.25;1.00;;;;;9.10;96.59;99435.44;5085227;27;45567;-68
2023/03/15 09:24:24;;;;;;;;;3.25;3.00;;;;;9.06;96.80;99428.53;5091212;27;45306;-68
2023/03/15 09:26:50;;;;;;;;;3.00;1.00;;;;;9.05;100.00;99428.59;5070609;28;45430;-68
2023/03/15 09:29:15;;;;;;;;;2.00;2.00;;;;;9.08;100.00;99425.88;5091530;27;46513;-69
2023/03/15 09:31:41;;;;;;;;;4.00;1.50;;;;;9.16;100.00;99420.41;5078459;27;45435;-69
2023/03/15 09:34:06;;;;;;;;;2.00;2.00;;;;;9.22;100.00;99426.31;5091871;27;45439;-69
2023/03/15 09:36:32;;;;;;;;;3.00;2.00;;;;;9.29;100.00;99427.00;5093398;27;45486;-69
2023/03/15 09:38:58;;;;;;;;;1.00;1.00;;;;;9.26;98.20;99422.69;5093597;27;45614;-69
2023/03/15 09:41:43;;;;;;;;;0.00;0.00;;;;;9.20;90.34;99422.03;5091016;27;45555;-69
2023/03/15 09:44:20;;;;;;;;;1.00;1.00;;;;;9.14;91.60;99424.84;5092757;27;45377;-69
2023/03/15 09:46:58;;;;;;;;;2.00;1.00;;;;;9.12;91.98;99411.72;5090487;27;45591;-69
2023/03/15 09:50:01;;;;;;;;;2.00;1.00;;;;;9.13;100.00;99404.69;5084673;27;46072;-69
2023/03/15 09:52:48;;;;;;;;;0.25;0.00;;;;;9.21;100.00;99414.09;5068994;27;45556;-69
2023/03/15 09:55:22;;;;;;;;;1.00;1.00;;;;;9.31;100.00;99406.78;5074864;27;45533;-68
2023/03/15 09:57:57;;;;;;;;;0.00;0.00;;;;;9.39;100.00;99400.34;5089912;27;45440;-67
2023/03/15 10:00:43;;;;;;;;;1.00;1.00;;;;;9.50;100.00;99399.19;5092302;27;45515;-68
2023/03/15 10:03:21;;;;;;;;;1.00;1.00;;;;;9.62;100.00;99391.75;5088265;27;45353;-67
2023/03/15 10:06:01;;;;;;;;;2.00;1.25;;;;;9.73;100.00;99399.28;5091455;27;45521;-68
2023/03/15 10:08:27;;;;;;;;;3.50;0.00;;;;;9.82;89.22;99404.28;5090285;27;45334;-68
2023/03/15 10:11:10;;;;;;;;;1.00;1.00;;;;;9.83;90.60;99398.09;5092680;27;46461;-68
2023/03/15 10:14:07;;;;;;;;;3.00;1.00;;;;;9.79;93.15;99396.47;5091486;27;45517;-68
2023/03/15 10:16:38;;;;;;;;;0.75;0.75;;;;;9.75;100.00;99400.97;5087526;27;45534;-68
2023/03/15 10:19:38;;;;;;;;;2.50;1.00;;;;;9.77;96.53;99407.06;5086770;27;45489;-69
2023/03/15 10:22:10;;;;;;;;;1.50;1.00;;;;;9.74;96.21;99408.91;5091587;27;45519;-68
2023/03/15 10:25:01;;;;;;;;;2.00;2.00;;;;;9.78;100.00;99405.28;5088711;27;45758;-68
2023/03/15 10:27:27;;;;;;;;;3.00;1.50;;;;;9.85;88.80;99412.09;5080941;27;45588;-68
2023/03/15 10:29:56;;;;;;;;;2.00;2.00;;;;;9.87;100.00;99402.38;5087921;27;45787;-68
2023/03/15 10:32:26;;;;;;;;;3.00;2.00;;;;;9.92;95.16;99396.94;5085046;27;45549;-68
2023/03/15 10:34:56;;;;;;;;;1.75;1.00;;;;;9.97;82.59;99403.78;5092805;27;45585;-68
2023/03/15 10:37:23;;;;;;;;;1.00;1.00;;;;;9.97;94.11;99395.88;5089467;27;45368;-68
2023/03/15 10:39:54;;;;;;;;;1.25;1.00;;;;;10.01;98.61;99397.50;5092879;27;45344;-69
2023/03/15 10:42:46;;;;;;;;;2.25;2.00;;;;;10.07;95.30;99392.00;5093158;27;45551;-68
2023/03/15 10:45:24;;;;;;;;;1.75;1.00;;;;;10.13;100.00;99383.06;5085912;27;45523;-68
2023/03/15 10:47:51;;;;;;;;;1.00;1.00;;;;;10.24;95.83;99394.09;5087620;27;45531;-68
2023/03/15 10:50:31;;;;;;;;;2.00;2.00;;;;;10.29;92.73;99380.78;5090615;27;45516;-69
2023/03/15 10:52:58;;;;;;;;;2.25;2.25;;;;;10.34;89.01;99376.22;5091254;27;46014;-69
2023/03/15 10:55:36;;;;;;;;;2.75;2.75;;;;;10.37;81.46;99374.34;5076551;27;45524;-69
2023/03/15 10:58:19;;;;;;;;;1.50;1.50;;;;;10.33;78.33;99358.69;5093313;27;45342;-69
2023/03/15 11:00:58;;;;;;;;;2.50;1.25;;;;;10.31;78.09;99358.72;5094987;27;45526;-69
2023/03/15 11:03:25;;;;;;;;;2.00;1.00;;;;;10.27;88.10;99351.84;5094554;27;45413;-69
2023/03/15 11:05:56;;;;;;;;;2.25;2.25;;;;;10.33;82.68;99351.63;5095318;27;45508;-68
2023/03/15 11:08:34;;;;;;;;;4.00;3.00;;;;;10.39;79.86;99348.75;5087610;27;45494;-69
2023/03/15 11:10:59;;;;;;;;;3.00;2.00;;;;;10.42;76.15;99361.84;5095347;27;45451;-69
2023/03/15 11:13:25;;;;;;;;;1.00;1.00;;;;;10.41;82.34;99353.97;5093390;27;45520;-69
2023/03/15 11:16:08;;;;;;;;;2.50;2.50;;;;;10.39;82.23;99342.66;5095523;27;45456;-69
2023/03/15 11:18:42;;;;;;;;;3.50;2.00;;;;;10.40;79.92;99329.41;5091431;27;45338;-70
2023/03/15 11:21:15;;;;;;;;;1.00;1.00;;;;;10.38;75.53;99354.97;5096536;27;45516;-67
2023/03/15 11:23:44;;;;;;;;;1.00;0.00;;;;;10.38;77.04;99338.31;5094761;27;46601;-67
2023/03/15 11:26:17;;;;;;;;;1.50;1.50;;;;;10.39;74.27;99356.69;5093648;27;45431;-66
2023/03/15 11:28:49;;;;;;;;;2.25;2.25;;;;;10.41;69.04;99352.22;5095423;27;45444;-64
2023/03/15 11:31:15;;;;;;;;;2.00;1.25;;;;;10.46;78.62;99342.38;5093101;27;45627;-64
2023/03/15 11:33:50;;;;;;;;;1.00;1.00;;;;;10.54;79.64;99354.44;5093443;27;45536;-65
2023/03/15 11:36:20;;;;;;;;;1.50;1.00;;;;;10.62;63.61;99339.19;5093278;27;45518;-65